This is the latest recevied weather packets stored in our database for station/object VK3BKO-13. If no packets are shown the sender has not sent any weather packets the latest 10 day(s).
| Time | Temp. | Humidity | Pressure | Rain* | Wind** | Luminosity | Snow |
|---|---|---|---|---|---|---|---|
| 1777895224 | 14.44° C | 79% | 1011.9 hPa | 0.25 mm | - | 0 W/m² | - |
| 1777894324 | 14.44° C | 81% | 1012.2 hPa | 0.25 mm | - | 0 W/m² | - |
| 1777893424 | 15° C | 78% | 1011.9 hPa | 0 mm | - | 0 W/m² | - |
| 1777892525 | 15.56° C | 74% | 1011.2 hPa | 0 mm | - | 0 W/m² | - |
| 1777891623 | 15° C | 75% | 1011.2 hPa | 0 mm | - | 0 W/m² | - |
| 1777890724 | 15° C | 76% | 1010.9 hPa | 0 mm | - | 0 W/m² | - |
| 1777889824 | 15° C | 76% | 1010.9 hPa | 0 mm | - | 0 W/m² | - |
| 1777888924 | 15° C | 75% | 1010.5 hPa | 0 mm | - | 0 W/m² | - |
| 1777888023 | 15° C | 75% | 1010.5 hPa | 0 mm | - | 0 W/m² | - |
| 1777887124 | 15° C | 75% | 1010.2 hPa | 0 mm | - | 0 W/m² | - |
| 1777886224 | 15° C | 75% | 1010.2 hPa | 0 mm | - | 0 W/m² | - |
| 1777885325 | 15° C | 74% | 1010.2 hPa | 0 mm | - | 0 W/m² | - |
| 1777884423 | 15° C | 72% | 1009.9 hPa | 0 mm | - | 0 W/m² | - |
| 1777883524 | 15.56° C | 71% | 1009.5 hPa | 0 mm | - | 0 W/m² | - |
| 1777882624 | 15.56° C | 69% | 1009.5 hPa | 0 mm | - | 0 W/m² | - |
| 1777881724 | 15.56° C | 68% | 1009.2 hPa | 0 mm | - | 0 W/m² | - |
| 1777880824 | 16.11° C | 66% | 1009.2 hPa | 0 mm | - | 0 W/m² | - |
| 1777879924 | 16.11° C | 66% | 1009.2 hPa | 0 mm | - | 2 W/m² | - |
| 1777879023 | 16.11° C | 66% | 1008.8 hPa | 0 mm | - | 9 W/m² | - |
| 1777878124 | 16.67° C | 62% | 1008.5 hPa | 0 mm | - | 16 W/m² | - |
| 1777877224 | 16.67° C | 61% | 1008.5 hPa | 0 mm | - | 18 W/m² | - |
| 1777876324 | 17.22° C | 60% | 1008.2 hPa | 0 mm | - | 26 W/m² | - |
| 1777875424 | 18.33° C | 57% | 1008.2 hPa | 0 mm | - | 64 W/m² | - |
| 1777874523 | 18.33° C | 56% | 1008.2 hPa | 0 mm | - | 93 W/m² | - |
| 1777873624 | 18.33° C | 56% | 1008.2 hPa | 0 mm | - | 127 W/m² | - |
* Rain latest hour (hover to see other rain measurements)
** Current wind speed in m/s (hover to see current wind gust speed)